sensor_id;sensor_type;location;lat;lon;timestamp;P1;durP1;ratioP1;P2;durP2;ratioP2
7719;SDS011;3902;49.474;8.616;2024-01-27T00:01:26;5.80;;;3.33;;
7719;SDS011;3902;49.474;8.616;2024-01-27T00:03:51;7.90;;;4.87;;
7719;SDS011;3902;49.474;8.616;2024-01-27T00:06:19;6.23;;;4.10;;
7719;SDS011;3902;49.474;8.616;2024-01-27T00:08:44;5.37;;;4.07;;
7719;SDS011;3902;49.474;8.616;2024-01-27T00:11:10;4.90;;;3.80;;
7719;SDS011;3902;49.474;8.616;2024-01-27T00:13:36;5.80;;;4.00;;
7719;SDS011;3902;49.474;8.616;2024-01-27T00:16:02;6.53;;;4.70;;
7719;SDS011;3902;49.474;8.616;2024-01-27T00:18:27;7.87;;;5.20;;
7719;SDS011;3902;49.474;8.616;2024-01-27T00:20:53;6.13;;;5.20;;
7719;SDS011;3902;49.474;8.616;2024-01-27T00:23:18;7.03;;;4.37;;
7719;SDS011;3902;49.474;8.616;2024-01-27T00:25:44;5.90;;;4.50;;
7719;SDS011;3902;49.474;8.616;2024-01-27T00:28:09;6.67;;;4.40;;
7719;SDS011;3902;49.474;8.616;2024-01-27T00:30:35;5.77;;;4.43;;
7719;SDS011;3902;49.474;8.616;2024-01-27T00:33:00;7.43;;;3.70;;
7719;SDS011;3902;49.474;8.616;2024-01-27T00:35:26;6.70;;;4.57;;
7719;SDS011;3902;49.474;8.616;2024-01-27T00:37:52;6.70;;;4.70;;
7719;SDS011;3902;49.474;8.616;2024-01-27T00:40:17;6.97;;;4.50;;
7719;SDS011;3902;49.474;8.616;2024-01-27T00:42:43;4.70;;;4.13;;
7719;SDS011;3902;49.474;8.616;2024-01-27T00:45:09;6.07;;;4.70;;
7719;SDS011;3902;49.474;8.616;2024-01-27T00:47:34;6.63;;;4.23;;
7719;SDS011;3902;49.474;8.616;2024-01-27T00:50:00;9.37;;;5.10;;
7719;SDS011;3902;49.474;8.616;2024-01-27T00:52:25;6.50;;;4.17;;
7719;SDS011;3902;49.474;8.616;2024-01-27T00:54:51;9.33;;;5.03;;
7719;SDS011;3902;49.474;8.616;2024-01-27T00:57:16;6.97;;;4.37;;
7719;SDS011;3902;49.474;8.616;2024-01-27T00:59:42;5.37;;;3.70;;
7719;SDS011;3902;49.474;8.616;2024-01-27T01:02:08;7.10;;;4.00;;
7719;SDS011;3902;49.474;8.616;2024-01-27T01:04:33;6.87;;;4.30;;
7719;SDS011;3902;49.474;8.616;2024-01-27T01:06:59;6.27;;;3.83;;
7719;SDS011;3902;49.474;8.616;2024-01-27T01:09:25;4.63;;;3.73;;
7719;SDS011;3902;49.474;8.616;2024-01-27T01:11:50;5.57;;;3.33;;
7719;SDS011;3902;49.474;8.616;2024-01-27T01:14:16;6.27;;;3.50;;
7719;SDS011;3902;49.474;8.616;2024-01-27T01:16:41;5.87;;;3.40;;
7719;SDS011;3902;49.474;8.616;2024-01-27T01:19:07;5.23;;;4.00;;
7719;SDS011;3902;49.474;8.616;2024-01-27T01:21:33;4.50;;;3.17;;
7719;SDS011;3902;49.474;8.616;2024-01-27T01:23:59;3.97;;;3.17;;
7719;SDS011;3902;49.474;8.616;2024-01-27T01:26:24;4.77;;;3.47;;
7719;SDS011;3902;49.474;8.616;2024-01-27T01:28:50;5.80;;;3.57;;
7719;SDS011;3902;49.474;8.616;2024-01-27T01:31:16;6.57;;;3.67;;
7719;SDS011;3902;49.474;8.616;2024-01-27T01:33:42;3.43;;;3.00;;
7719;SDS011;3902;49.474;8.616;2024-01-27T01:36:08;4.20;;;3.00;;
7719;SDS011;3902;49.474;8.616;2024-01-27T01:38:34;5.90;;;3.67;;
7719;SDS011;3902;49.474;8.616;2024-01-27T01:40:59;6.47;;;3.60;;
7719;SDS011;3902;49.474;8.616;2024-01-27T01:43:25;4.80;;;3.20;;
7719;SDS011;3902;49.474;8.616;2024-01-27T01:45:51;4.57;;;3.50;;
7719;SDS011;3902;49.474;8.616;2024-01-27T01:48:18;5.47;;;3.30;;
7719;SDS011;3902;49.474;8.616;2024-01-27T01:50:45;4.77;;;3.07;;
7719;SDS011;3902;49.474;8.616;2024-01-27T01:53:11;4.97;;;3.23;;
7719;SDS011;3902;49.474;8.616;2024-01-27T01:55:37;4.30;;;3.20;;
7719;SDS011;3902;49.474;8.616;2024-01-27T01:58:03;5.90;;;3.73;;
7719;SDS011;3902;49.474;8.616;2024-01-27T02:00:29;4.17;;;2.83;;
7719;SDS011;3902;49.474;8.616;2024-01-27T02:02:55;4.33;;;3.10;;
7719;SDS011;3902;49.474;8.616;2024-01-27T02:05:20;6.73;;;3.60;;
7719;SDS011;3902;49.474;8.616;2024-01-27T02:07:46;5.63;;;3.03;;
7719;SDS011;3902;49.474;8.616;2024-01-27T02:10:13;4.90;;;2.77;;
7719;SDS011;3902;49.474;8.616;2024-01-27T02:12:41;3.93;;;2.90;;
7719;SDS011;3902;49.474;8.616;2024-01-27T02:15:10;3.93;;;3.00;;
7719;SDS011;3902;49.474;8.616;2024-01-27T02:17:37;8.30;;;3.63;;
7719;SDS011;3902;49.474;8.616;2024-01-27T02:20:04;4.43;;;3.10;;
7719;SDS011;3902;49.474;8.616;2024-01-27T02:22:31;8.17;;;3.83;;
7719;SDS011;3902;49.474;8.616;2024-01-27T02:25:00;6.17;;;3.60;;
7719;SDS011;3902;49.474;8.616;2024-01-27T02:27:27;5.23;;;3.37;;
7719;SDS011;3902;49.474;8.616;2024-01-27T02:29:52;4.40;;;3.03;;
7719;SDS011;3902;49.474;8.616;2024-01-27T02:32:18;4.33;;;3.37;;
7719;SDS011;3902;49.474;8.616;2024-01-27T02:34:43;4.40;;;2.80;;
7719;SDS011;3902;49.474;8.616;2024-01-27T02:37:09;3.73;;;3.20;;
7719;SDS011;3902;49.474;8.616;2024-01-27T02:39:35;4.67;;;3.17;;
7719;SDS011;3902;49.474;8.616;2024-01-27T02:42:01;4.43;;;3.23;;
7719;SDS011;3902;49.474;8.616;2024-01-27T02:44:26;3.90;;;3.00;;
7719;SDS011;3902;49.474;8.616;2024-01-27T02:46:52;5.77;;;3.07;;
7719;SDS011;3902;49.474;8.616;2024-01-27T02:49:18;5.50;;;3.30;;
7719;SDS011;3902;49.474;8.616;2024-01-27T02:51:43;4.50;;;3.37;;
7719;SDS011;3902;49.474;8.616;2024-01-27T02:54:09;4.83;;;2.73;;
7719;SDS011;3902;49.474;8.616;2024-01-27T02:56:34;7.60;;;3.30;;
7719;SDS011;3902;49.474;8.616;2024-01-27T02:59:00;4.10;;;2.87;;
7719;SDS011;3902;49.474;8.616;2024-01-27T03:01:25;4.37;;;3.00;;
7719;SDS011;3902;49.474;8.616;2024-01-27T03:03:51;3.27;;;2.70;;
7719;SDS011;3902;49.474;8.616;2024-01-27T03:06:17;4.80;;;3.10;;
7719;SDS011;3902;49.474;8.616;2024-01-27T03:08:42;2.80;;;2.43;;
7719;SDS011;3902;49.474;8.616;2024-01-27T03:11:08;4.40;;;2.73;;
7719;SDS011;3902;49.474;8.616;2024-01-27T03:13:33;5.50;;;2.70;;
7719;SDS011;3902;49.474;8.616;2024-01-27T03:15:59;4.20;;;2.50;;
7719;SDS011;3902;49.474;8.616;2024-01-27T03:18:24;7.23;;;3.27;;
7719;SDS011;3902;49.474;8.616;2024-01-27T03:20:50;4.97;;;3.30;;
7719;SDS011;3902;49.474;8.616;2024-01-27T03:23:15;3.70;;;2.57;;
7719;SDS011;3902;49.474;8.616;2024-01-27T03:25:41;6.40;;;3.10;;
7719;SDS011;3902;49.474;8.616;2024-01-27T03:28:06;7.20;;;2.40;;
7719;SDS011;3902;49.474;8.616;2024-01-27T03:30:32;4.50;;;2.30;;
7719;SDS011;3902;49.474;8.616;2024-01-27T03:32:57;7.40;;;3.00;;
7719;SDS011;3902;49.474;8.616;2024-01-27T03:35:23;4.37;;;2.53;;
7719;SDS011;3902;49.474;8.616;2024-01-27T03:37:49;6.00;;;2.87;;
7719;SDS011;3902;49.474;8.616;2024-01-27T03:40:14;4.93;;;2.60;;
7719;SDS011;3902;49.474;8.616;2024-01-27T03:42:40;3.70;;;2.47;;
7719;SDS011;3902;49.474;8.616;2024-01-27T03:45:05;4.17;;;2.63;;
7719;SDS011;3902;49.474;8.616;2024-01-27T03:47:31;2.97;;;2.37;;
7719;SDS011;3902;49.474;8.616;2024-01-27T03:49:57;4.53;;;2.87;;
7719;SDS011;3902;49.474;8.616;2024-01-27T03:52:22;4.50;;;2.90;;
7719;SDS011;3902;49.474;8.616;2024-01-27T03:54:48;4.93;;;2.60;;
7719;SDS011;3902;49.474;8.616;2024-01-27T03:57:13;4.57;;;2.63;;
7719;SDS011;3902;49.474;8.616;2024-01-27T03:59:42;4.37;;;2.63;;
7719;SDS011;3902;49.474;8.616;2024-01-27T04:02:07;4.73;;;3.10;;
7719;SDS011;3902;49.474;8.616;2024-01-27T04:04:33;4.30;;;2.60;;
7719;SDS011;3902;49.474;8.616;2024-01-27T04:06:58;5.63;;;3.00;;
7719;SDS011;3902;49.474;8.616;2024-01-27T04:09:24;5.57;;;2.60;;
7719;SDS011;3902;49.474;8.616;2024-01-27T04:11:49;3.73;;;2.70;;
7719;SDS011;3902;49.474;8.616;2024-01-27T04:14:15;4.03;;;2.27;;
7719;SDS011;3902;49.474;8.616;2024-01-27T04:16:41;3.67;;;2.60;;
7719;SDS011;3902;49.474;8.616;2024-01-27T04:19:06;4.83;;;2.60;;
7719;SDS011;3902;49.474;8.616;2024-01-27T04:21:32;6.70;;;3.63;;
7719;SDS011;3902;49.474;8.616;2024-01-27T04:23:58;5.20;;;3.07;;
7719;SDS011;3902;49.474;8.616;2024-01-27T04:26:23;4.53;;;2.60;;
7719;SDS011;3902;49.474;8.616;2024-01-27T04:28:49;4.50;;;2.70;;
7719;SDS011;3902;49.474;8.616;2024-01-27T04:31:14;4.90;;;2.80;;
7719;SDS011;3902;49.474;8.616;2024-01-27T04:33:40;3.43;;;2.53;;
7719;SDS011;3902;49.474;8.616;2024-01-27T04:36:05;5.17;;;2.90;;
7719;SDS011;3902;49.474;8.616;2024-01-27T04:38:35;7.87;;;2.90;;
7719;SDS011;3902;49.474;8.616;2024-01-27T04:41:01;6.63;;;2.80;;
7719;SDS011;3902;49.474;8.616;2024-01-27T04:43:27;4.53;;;2.87;;
7719;SDS011;3902;49.474;8.616;2024-01-27T04:45:53;6.63;;;3.00;;
7719;SDS011;3902;49.474;8.616;2024-01-27T04:48:19;6.10;;;3.43;;
7719;SDS011;3902;49.474;8.616;2024-01-27T04:50:45;4.07;;;2.87;;
7719;SDS011;3902;49.474;8.616;2024-01-27T04:53:11;4.77;;;2.83;;
7719;SDS011;3902;49.474;8.616;2024-01-27T04:55:37;4.70;;;2.80;;
7719;SDS011;3902;49.474;8.616;2024-01-27T04:58:03;4.97;;;2.90;;
7719;SDS011;3902;49.474;8.616;2024-01-27T05:00:29;3.90;;;2.93;;
7719;SDS011;3902;49.474;8.616;2024-01-27T05:02:54;5.33;;;2.87;;
7719;SDS011;3902;49.474;8.616;2024-01-27T05:05:20;4.27;;;2.90;;
7719;SDS011;3902;49.474;8.616;2024-01-27T05:07:46;3.93;;;2.80;;
7719;SDS011;3902;49.474;8.616;2024-01-27T05:10:14;5.07;;;3.10;;
7719;SDS011;3902;49.474;8.616;2024-01-27T05:12:40;6.30;;;3.40;;
7719;SDS011;3902;49.474;8.616;2024-01-27T05:15:06;5.53;;;3.20;;
7719;SDS011;3902;49.474;8.616;2024-01-27T05:17:31;5.10;;;2.70;;
7719;SDS011;3902;49.474;8.616;2024-01-27T05:19:57;3.93;;;3.07;;
7719;SDS011;3902;49.474;8.616;2024-01-27T05:22:23;6.70;;;2.93;;
7719;SDS011;3902;49.474;8.616;2024-01-27T05:24:49;5.60;;;3.20;;
7719;SDS011;3902;49.474;8.616;2024-01-27T05:27:14;3.93;;;2.73;;
7719;SDS011;3902;49.474;8.616;2024-01-27T05:29:40;3.77;;;2.60;;
7719;SDS011;3902;49.474;8.616;2024-01-27T05:32:06;5.80;;;2.67;;
7719;SDS011;3902;49.474;8.616;2024-01-27T05:34:31;6.40;;;2.30;;
7719;SDS011;3902;49.474;8.616;2024-01-27T05:36:57;3.00;;;2.50;;
7719;SDS011;3902;49.474;8.616;2024-01-27T05:39:22;3.80;;;3.10;;
7719;SDS011;3902;49.474;8.616;2024-01-27T05:41:48;3.70;;;2.73;;
7719;SDS011;3902;49.474;8.616;2024-01-27T05:44:14;4.57;;;2.97;;
7719;SDS011;3902;49.474;8.616;2024-01-27T05:46:39;5.20;;;2.47;;
7719;SDS011;3902;49.474;8.616;2024-01-27T05:49:05;3.40;;;2.50;;
7719;SDS011;3902;49.474;8.616;2024-01-27T05:51:30;4.27;;;2.87;;
7719;SDS011;3902;49.474;8.616;2024-01-27T05:53:56;5.43;;;2.57;;
7719;SDS011;3902;49.474;8.616;2024-01-27T05:56:22;5.50;;;3.00;;
7719;SDS011;3902;49.474;8.616;2024-01-27T05:58:47;7.57;;;2.90;;
7719;SDS011;3902;49.474;8.616;2024-01-27T06:01:13;4.93;;;2.70;;
7719;SDS011;3902;49.474;8.616;2024-01-27T06:03:42;3.60;;;2.60;;
7719;SDS011;3902;49.474;8.616;2024-01-27T06:06:08;6.47;;;3.17;;
7719;SDS011;3902;49.474;8.616;2024-01-27T06:08:34;7.20;;;3.40;;
7719;SDS011;3902;49.474;8.616;2024-01-27T06:11:00;6.00;;;3.00;;
7719;SDS011;3902;49.474;8.616;2024-01-27T06:13:25;4.80;;;3.17;;
7719;SDS011;3902;49.474;8.616;2024-01-27T06:15:51;5.00;;;3.17;;
7719;SDS011;3902;49.474;8.616;2024-01-27T06:18:17;4.83;;;3.00;;
7719;SDS011;3902;49.474;8.616;2024-01-27T06:20:42;3.87;;;2.70;;
7719;SDS011;3902;49.474;8.616;2024-01-27T06:23:08;5.33;;;2.63;;
7719;SDS011;3902;49.474;8.616;2024-01-27T06:25:34;4.03;;;2.90;;
7719;SDS011;3902;49.474;8.616;2024-01-27T06:28:00;5.50;;;3.03;;
7719;SDS011;3902;49.474;8.616;2024-01-27T06:30:25;3.77;;;2.47;;
7719;SDS011;3902;49.474;8.616;2024-01-27T06:32:51;5.00;;;3.00;;
7719;SDS011;3902;49.474;8.616;2024-01-27T06:35:16;5.73;;;3.20;;
7719;SDS011;3902;49.474;8.616;2024-01-27T06:37:42;5.87;;;3.07;;
7719;SDS011;3902;49.474;8.616;2024-01-27T06:40:08;6.53;;;3.27;;
7719;SDS011;3902;49.474;8.616;2024-01-27T06:42:36;6.13;;;3.07;;
7719;SDS011;3902;49.474;8.616;2024-01-27T06:45:02;6.70;;;2.60;;
7719;SDS011;3902;49.474;8.616;2024-01-27T06:47:28;5.37;;;2.90;;
7719;SDS011;3902;49.474;8.616;2024-01-27T06:49:54;4.90;;;3.27;;
7719;SDS011;3902;49.474;8.616;2024-01-27T06:52:20;4.90;;;2.67;;
7719;SDS011;3902;49.474;8.616;2024-01-27T06:54:46;4.53;;;3.13;;
7719;SDS011;3902;49.474;8.616;2024-01-27T06:57:21;6.80;;;3.33;;
7719;SDS011;3902;49.474;8.616;2024-01-27T06:59:47;3.90;;;2.97;;
7719;SDS011;3902;49.474;8.616;2024-01-27T07:02:27;4.53;;;2.63;;
7719;SDS011;3902;49.474;8.616;2024-01-27T07:04:56;5.00;;;3.07;;
7719;SDS011;3902;49.474;8.616;2024-01-27T07:07:22;4.53;;;3.27;;
7719;SDS011;3902;49.474;8.616;2024-01-27T07:09:51;4.50;;;3.13;;
7719;SDS011;3902;49.474;8.616;2024-01-27T07:12:16;4.43;;;3.07;;
7719;SDS011;3902;49.474;8.616;2024-01-27T07:14:42;4.07;;;3.20;;
7719;SDS011;3902;49.474;8.616;2024-01-27T07:17:07;5.00;;;3.60;;
7719;SDS011;3902;49.474;8.616;2024-01-27T07:19:33;7.67;;;3.60;;
7719;SDS011;3902;49.474;8.616;2024-01-27T07:21:58;5.17;;;3.43;;
7719;SDS011;3902;49.474;8.616;2024-01-27T07:24:28;6.87;;;3.37;;
7719;SDS011;3902;49.474;8.616;2024-01-27T07:26:54;3.47;;;2.97;;
7719;SDS011;3902;49.474;8.616;2024-01-27T07:29:19;4.43;;;3.10;;
7719;SDS011;3902;49.474;8.616;2024-01-27T07:31:45;5.83;;;3.30;;
7719;SDS011;3902;49.474;8.616;2024-01-27T07:34:11;4.77;;;2.80;;
7719;SDS011;3902;49.474;8.616;2024-01-27T07:36:37;3.80;;;2.73;;
7719;SDS011;3902;49.474;8.616;2024-01-27T07:39:02;5.10;;;2.90;;
7719;SDS011;3902;49.474;8.616;2024-01-27T07:41:29;4.33;;;3.03;;
7719;SDS011;3902;49.474;8.616;2024-01-27T07:43:55;4.73;;;2.80;;
7719;SDS011;3902;49.474;8.616;2024-01-27T07:46:21;3.97;;;2.93;;
7719;SDS011;3902;49.474;8.616;2024-01-27T07:48:48;6.20;;;3.67;;
7719;SDS011;3902;49.474;8.616;2024-01-27T07:51:14;4.37;;;3.10;;
7719;SDS011;3902;49.474;8.616;2024-01-27T07:53:40;4.57;;;3.17;;
7719;SDS011;3902;49.474;8.616;2024-01-27T07:56:06;8.03;;;3.50;;
7719;SDS011;3902;49.474;8.616;2024-01-27T07:58:32;4.60;;;2.93;;
7719;SDS011;3902;49.474;8.616;2024-01-27T08:00:58;3.50;;;2.80;;
7719;SDS011;3902;49.474;8.616;2024-01-27T08:03:24;3.47;;;2.87;;
7719;SDS011;3902;49.474;8.616;2024-01-27T08:05:50;4.00;;;2.87;;
7719;SDS011;3902;49.474;8.616;2024-01-27T08:08:15;4.53;;;2.70;;
7719;SDS011;3902;49.474;8.616;2024-01-27T08:10:41;3.23;;;2.63;;
7719;SDS011;3902;49.474;8.616;2024-01-27T08:13:06;3.40;;;2.63;;
7719;SDS011;3902;49.474;8.616;2024-01-27T08:15:32;5.27;;;2.63;;
7719;SDS011;3902;49.474;8.616;2024-01-27T08:17:58;4.47;;;3.33;;
7719;SDS011;3902;49.474;8.616;2024-01-27T08:20:23;3.97;;;3.05;;
7719;SDS011;3902;49.474;8.616;2024-01-27T08:22:49;8.07;;;3.30;;
7719;SDS011;3902;49.474;8.616;2024-01-27T08:25:16;3.60;;;2.90;;
7719;SDS011;3902;49.474;8.616;2024-01-27T08:27:43;7.17;;;3.70;;
7719;SDS011;3902;49.474;8.616;2024-01-27T08:30:08;5.37;;;3.20;;
7719;SDS011;3902;49.474;8.616;2024-01-27T08:32:35;4.53;;;3.30;;
7719;SDS011;3902;49.474;8.616;2024-01-27T08:35:00;4.13;;;3.30;;
7719;SDS011;3902;49.474;8.616;2024-01-27T08:37:28;6.00;;;3.83;;
7719;SDS011;3902;49.474;8.616;2024-01-27T08:39:54;3.30;;;3.00;;
7719;SDS011;3902;49.474;8.616;2024-01-27T08:42:20;4.93;;;3.60;;
7719;SDS011;3902;49.474;8.616;2024-01-27T08:44:45;5.00;;;3.10;;
7719;SDS011;3902;49.474;8.616;2024-01-27T08:47:11;5.73;;;3.70;;
7719;SDS011;3902;49.474;8.616;2024-01-27T08:49:36;6.23;;;3.83;;
7719;SDS011;3902;49.474;8.616;2024-01-27T08:52:02;7.43;;;3.73;;
7719;SDS011;3902;49.474;8.616;2024-01-27T08:54:28;7.60;;;4.50;;
7719;SDS011;3902;49.474;8.616;2024-01-27T08:56:53;5.60;;;3.90;;
7719;SDS011;3902;49.474;8.616;2024-01-27T08:59:19;9.43;;;4.07;;
7719;SDS011;3902;49.474;8.616;2024-01-27T09:01:44;6.23;;;3.70;;
7719;SDS011;3902;49.474;8.616;2024-01-27T09:04:09;8.87;;;3.80;;
7719;SDS011;3902;49.474;8.616;2024-01-27T09:06:35;8.07;;;3.90;;
7719;SDS011;3902;49.474;8.616;2024-01-27T09:09:00;6.40;;;4.10;;
7719;SDS011;3902;49.474;8.616;2024-01-27T09:11:26;7.77;;;4.20;;
7719;SDS011;3902;49.474;8.616;2024-01-27T09:13:55;7.60;;;4.60;;
7719;SDS011;3902;49.474;8.616;2024-01-27T09:16:21;7.77;;;4.70;;
7719;SDS011;3902;49.474;8.616;2024-01-27T09:18:46;6.70;;;5.07;;
7719;SDS011;3902;49.474;8.616;2024-01-27T09:21:12;6.10;;;4.60;;
7719;SDS011;3902;49.474;8.616;2024-01-27T09:23:39;7.93;;;4.90;;
7719;SDS011;3902;49.474;8.616;2024-01-27T09:26:05;8.47;;;5.53;;
7719;SDS011;3902;49.474;8.616;2024-01-27T09:28:30;6.50;;;4.40;;
7719;SDS011;3902;49.474;8.616;2024-01-27T09:30:56;8.53;;;4.90;;
7719;SDS011;3902;49.474;8.616;2024-01-27T09:33:21;15.20;;;6.33;;
7719;SDS011;3902;49.474;8.616;2024-01-27T09:35:48;5.10;;;4.60;;
7719;SDS011;3902;49.474;8.616;2024-01-27T09:38:14;7.20;;;4.90;;
7719;SDS011;3902;49.474;8.616;2024-01-27T09:40:40;9.17;;;4.67;;
7719;SDS011;3902;49.474;8.616;2024-01-27T09:43:05;7.93;;;4.57;;
7719;SDS011;3902;49.474;8.616;2024-01-27T09:45:32;7.93;;;5.63;;
7719;SDS011;3902;49.474;8.616;2024-01-27T09:47:58;10.50;;;5.13;;
7719;SDS011;3902;49.474;8.616;2024-01-27T09:50:24;5.73;;;4.67;;
7719;SDS011;3902;49.474;8.616;2024-01-27T09:52:50;6.70;;;4.57;;
7719;SDS011;3902;49.474;8.616;2024-01-27T09:55:16;9.60;;;4.93;;
7719;SDS011;3902;49.474;8.616;2024-01-27T09:57:41;5.47;;;4.60;;
7719;SDS011;3902;49.474;8.616;2024-01-27T10:00:10;6.70;;;4.67;;
7719;SDS011;3902;49.474;8.616;2024-01-27T10:02:39;7.80;;;5.83;;
7719;SDS011;3902;49.474;8.616;2024-01-27T10:05:07;6.93;;;5.00;;
7719;SDS011;3902;49.474;8.616;2024-01-27T10:07:33;8.00;;;4.40;;
7719;SDS011;3902;49.474;8.616;2024-01-27T10:09:59;5.47;;;4.13;;
7719;SDS011;3902;49.474;8.616;2024-01-27T10:12:25;6.83;;;5.10;;
7719;SDS011;3902;49.474;8.616;2024-01-27T10:14:52;5.87;;;4.10;;
7719;SDS011;3902;49.474;8.616;2024-01-27T10:17:21;7.20;;;5.10;;
7719;SDS011;3902;49.474;8.616;2024-01-27T10:19:47;7.20;;;4.17;;
7719;SDS011;3902;49.474;8.616;2024-01-27T10:22:26;8.53;;;4.90;;
7719;SDS011;3902;49.474;8.616;2024-01-27T10:24:52;6.17;;;4.70;;
7719;SDS011;3902;49.474;8.616;2024-01-27T10:27:17;7.43;;;4.17;;
7719;SDS011;3902;49.474;8.616;2024-01-27T10:29:53;5.80;;;3.93;;
7719;SDS011;3902;49.474;8.616;2024-01-27T10:32:20;7.07;;;3.90;;
7719;SDS011;3902;49.474;8.616;2024-01-27T10:34:48;6.60;;;4.00;;
7719;SDS011;3902;49.474;8.616;2024-01-27T10:37:34;4.20;;;3.70;;
7719;SDS011;3902;49.474;8.616;2024-01-27T10:40:01;4.50;;;3.53;;
7719;SDS011;3902;49.474;8.616;2024-01-27T10:42:32;6.33;;;4.37;;
7719;SDS011;3902;49.474;8.616;2024-01-27T10:45:00;7.13;;;4.00;;
7719;SDS011;3902;49.474;8.616;2024-01-27T10:47:29;6.20;;;3.50;;
7719;SDS011;3902;49.474;8.616;2024-01-27T10:49:56;7.87;;;3.50;;
7719;SDS011;3902;49.474;8.616;2024-01-27T10:52:30;6.20;;;3.53;;
7719;SDS011;3902;49.474;8.616;2024-01-27T10:55:04;6.53;;;3.10;;
7719;SDS011;3902;49.474;8.616;2024-01-27T10:57:35;5.07;;;3.60;;
7719;SDS011;3902;49.474;8.616;2024-01-27T11:00:02;6.10;;;3.70;;
7719;SDS011;3902;49.474;8.616;2024-01-27T11:02:32;4.30;;;3.30;;
7719;SDS011;3902;49.474;8.616;2024-01-27T11:04:59;7.97;;;3.70;;
7719;SDS011;3902;49.474;8.616;2024-01-27T11:07:26;4.73;;;3.47;;
7719;SDS011;3902;49.474;8.616;2024-01-27T11:09:53;4.93;;;3.03;;
7719;SDS011;3902;49.474;8.616;2024-01-27T11:12:19;10.70;;;3.80;;
7719;SDS011;3902;49.474;8.616;2024-01-27T11:14:47;11.10;;;4.07;;
7719;SDS011;3902;49.474;8.616;2024-01-27T11:17:14;8.20;;;3.73;;
7719;SDS011;3902;49.474;8.616;2024-01-27T11:19:40;5.13;;;3.30;;
7719;SDS011;3902;49.474;8.616;2024-01-27T11:22:06;10.17;;;3.87;;
7719;SDS011;3902;49.474;8.616;2024-01-27T11:24:31;6.90;;;4.20;;
7719;SDS011;3902;49.474;8.616;2024-01-27T11:27:04;10.20;;;3.33;;
7719;SDS011;3902;49.474;8.616;2024-01-27T11:29:31;6.63;;;3.17;;
7719;SDS011;3902;49.474;8.616;2024-01-27T11:31:59;6.37;;;3.40;;
7719;SDS011;3902;49.474;8.616;2024-01-27T11:34:27;7.37;;;3.73;;
7719;SDS011;3902;49.474;8.616;2024-01-27T11:36:53;8.50;;;3.53;;
7719;SDS011;3902;49.474;8.616;2024-01-27T11:39:24;7.63;;;3.80;;
7719;SDS011;3902;49.474;8.616;2024-01-27T11:41:53;6.57;;;3.03;;
7719;SDS011;3902;49.474;8.616;2024-01-27T11:44:29;4.70;;;2.50;;
7719;SDS011;3902;49.474;8.616;2024-01-27T11:46:54;9.23;;;3.27;;
7719;SDS011;3902;49.474;8.616;2024-01-27T11:49:20;9.97;;;3.73;;
7719;SDS011;3902;49.474;8.616;2024-01-27T11:51:46;9.50;;;2.93;;
7719;SDS011;3902;49.474;8.616;2024-01-27T11:54:12;6.20;;;2.90;;
7719;SDS011;3902;49.474;8.616;2024-01-27T11:56:38;5.00;;;2.40;;
7719;SDS011;3902;49.474;8.616;2024-01-27T11:59:04;9.30;;;2.67;;
7719;SDS011;3902;49.474;8.616;2024-01-27T12:01:29;5.50;;;2.73;;
7719;SDS011;3902;49.474;8.616;2024-01-27T12:03:55;6.70;;;2.43;;
7719;SDS011;3902;49.474;8.616;2024-01-27T12:06:21;5.20;;;2.43;;
7719;SDS011;3902;49.474;8.616;2024-01-27T12:08:47;5.30;;;2.07;;
7719;SDS011;3902;49.474;8.616;2024-01-27T12:11:14;6.87;;;2.13;;
7719;SDS011;3902;49.474;8.616;2024-01-27T12:13:39;11.83;;;2.00;;
7719;SDS011;3902;49.474;8.616;2024-01-27T12:16:05;7.50;;;2.00;;
7719;SDS011;3902;49.474;8.616;2024-01-27T12:18:32;7.93;;;3.03;;
7719;SDS011;3902;49.474;8.616;2024-01-27T12:20:57;7.27;;;2.17;;
7719;SDS011;3902;49.474;8.616;2024-01-27T12:23:23;4.47;;;1.97;;
7719;SDS011;3902;49.474;8.616;2024-01-27T12:25:52;4.23;;;1.90;;
7719;SDS011;3902;49.474;8.616;2024-01-27T12:28:19;2.73;;;1.80;;
7719;SDS011;3902;49.474;8.616;2024-01-27T12:30:45;5.03;;;1.60;;
7719;SDS011;3902;49.474;8.616;2024-01-27T12:33:12;9.03;;;2.50;;
7719;SDS011;3902;49.474;8.616;2024-01-27T12:35:37;6.70;;;2.00;;
7719;SDS011;3902;49.474;8.616;2024-01-27T12:38:05;5.00;;;1.83;;
7719;SDS011;3902;49.474;8.616;2024-01-27T12:40:31;4.80;;;2.13;;
7719;SDS011;3902;49.474;8.616;2024-01-27T12:42:57;7.43;;;2.60;;
7719;SDS011;3902;49.474;8.616;2024-01-27T12:45:22;5.10;;;2.30;;
7719;SDS011;3902;49.474;8.616;2024-01-27T12:47:48;4.83;;;2.00;;
7719;SDS011;3902;49.474;8.616;2024-01-27T12:50:14;5.03;;;1.97;;
7719;SDS011;3902;49.474;8.616;2024-01-27T12:52:40;5.33;;;2.17;;
7719;SDS011;3902;49.474;8.616;2024-01-27T12:55:05;4.87;;;1.77;;
7719;SDS011;3902;49.474;8.616;2024-01-27T12:57:31;5.40;;;2.13;;
7719;SDS011;3902;49.474;8.616;2024-01-27T12:59:56;6.17;;;2.23;;
7719;SDS011;3902;49.474;8.616;2024-01-27T13:02:22;8.57;;;2.10;;
7719;SDS011;3902;49.474;8.616;2024-01-27T13:04:47;6.43;;;2.37;;
7719;SDS011;3902;49.474;8.616;2024-01-27T13:07:13;6.37;;;2.57;;
7719;SDS011;3902;49.474;8.616;2024-01-27T13:09:39;3.90;;;2.07;;
7719;SDS011;3902;49.474;8.616;2024-01-27T13:12:04;2.80;;;1.97;;
7719;SDS011;3902;49.474;8.616;2024-01-27T13:14:31;11.20;;;2.40;;
7719;SDS011;3902;49.474;8.616;2024-01-27T13:16:57;5.13;;;2.40;;
7719;SDS011;3902;49.474;8.616;2024-01-27T13:19:24;10.47;;;2.77;;
7719;SDS011;3902;49.474;8.616;2024-01-27T13:21:51;5.97;;;2.83;;
7719;SDS011;3902;49.474;8.616;2024-01-27T13:24:16;4.63;;;2.17;;
7719;SDS011;3902;49.474;8.616;2024-01-27T13:26:42;5.00;;;2.20;;
7719;SDS011;3902;49.474;8.616;2024-01-27T13:29:07;4.10;;;2.07;;
7719;SDS011;3902;49.474;8.616;2024-01-27T13:31:33;9.77;;;3.07;;
7719;SDS011;3902;49.474;8.616;2024-01-27T13:33:59;8.73;;;2.50;;
7719;SDS011;3902;49.474;8.616;2024-01-27T13:36:25;6.57;;;2.60;;
7719;SDS011;3902;49.474;8.616;2024-01-27T13:38:50;5.83;;;2.67;;
7719;SDS011;3902;49.474;8.616;2024-01-27T13:41:16;7.17;;;2.70;;
7719;SDS011;3902;49.474;8.616;2024-01-27T13:43:45;5.37;;;2.07;;
7719;SDS011;3902;49.474;8.616;2024-01-27T13:46:11;6.10;;;2.57;;
7719;SDS011;3902;49.474;8.616;2024-01-27T13:48:36;6.10;;;2.93;;
7719;SDS011;3902;49.474;8.616;2024-01-27T13:51:02;5.67;;;2.80;;
7719;SDS011;3902;49.474;8.616;2024-01-27T13:53:28;5.13;;;2.53;;
7719;SDS011;3902;49.474;8.616;2024-01-27T13:55:54;23.47;;;3.80;;
7719;SDS011;3902;49.474;8.616;2024-01-27T13:58:20;6.67;;;2.50;;
7719;SDS011;3902;49.474;8.616;2024-01-27T14:00:46;4.77;;;2.20;;
7719;SDS011;3902;49.474;8.616;2024-01-27T14:03:12;5.07;;;2.20;;
7719;SDS011;3902;49.474;8.616;2024-01-27T14:05:38;4.10;;;2.30;;
7719;SDS011;3902;49.474;8.616;2024-01-27T14:08:04;4.97;;;2.43;;
7719;SDS011;3902;49.474;8.616;2024-01-27T14:10:32;4.60;;;2.10;;
7719;SDS011;3902;49.474;8.616;2024-01-27T14:12:57;11.27;;;2.30;;
7719;SDS011;3902;49.474;8.616;2024-01-27T14:15:23;5.50;;;2.27;;
7719;SDS011;3902;49.474;8.616;2024-01-27T14:17:48;3.47;;;2.10;;
7719;SDS011;3902;49.474;8.616;2024-01-27T14:20:14;3.83;;;2.20;;
7719;SDS011;3902;49.474;8.616;2024-01-27T14:22:39;3.90;;;2.20;;
7719;SDS011;3902;49.474;8.616;2024-01-27T14:25:05;4.00;;;1.97;;
7719;SDS011;3902;49.474;8.616;2024-01-27T14:27:32;3.60;;;2.07;;
7719;SDS011;3902;49.474;8.616;2024-01-27T14:29:59;3.47;;;2.07;;
7719;SDS011;3902;49.474;8.616;2024-01-27T14:32:25;4.10;;;1.90;;
7719;SDS011;3902;49.474;8.616;2024-01-27T14:34:51;6.40;;;2.40;;
7719;SDS011;3902;49.474;8.616;2024-01-27T14:37:16;4.73;;;2.23;;
7719;SDS011;3902;49.474;8.616;2024-01-27T14:39:43;6.60;;;2.70;;
7719;SDS011;3902;49.474;8.616;2024-01-27T14:42:10;5.17;;;1.97;;
7719;SDS011;3902;49.474;8.616;2024-01-27T14:44:37;6.27;;;2.43;;
7719;SDS011;3902;49.474;8.616;2024-01-27T14:47:04;3.87;;;2.00;;
7719;SDS011;3902;49.474;8.616;2024-01-27T14:49:30;7.37;;;2.40;;
7719;SDS011;3902;49.474;8.616;2024-01-27T14:51:55;5.60;;;2.53;;
7719;SDS011;3902;49.474;8.616;2024-01-27T14:54:21;3.37;;;2.40;;
7719;SDS011;3902;49.474;8.616;2024-01-27T14:56:46;4.33;;;2.30;;
7719;SDS011;3902;49.474;8.616;2024-01-27T14:59:12;6.20;;;2.37;;
7719;SDS011;3902;49.474;8.616;2024-01-27T15:01:38;4.30;;;1.90;;
7719;SDS011;3902;49.474;8.616;2024-01-27T15:04:03;3.97;;;2.40;;
7719;SDS011;3902;49.474;8.616;2024-01-27T15:06:29;3.70;;;2.13;;
7719;SDS011;3902;49.474;8.616;2024-01-27T15:08:55;4.30;;;2.20;;